Ana Sayfa
METAR-TAF:

METAR-TAF

Havaalanları :

Rock Hill/York County Airport (Bryant Field)

Rock Hill, Güney Carolina, Amerika Birleşik Devletleri

Enlem: 34-59-02N, Boylam: 081-03-21W, yükseklik: 204 m

Güncel hava durumu gözlemi

Rapor saat 01:54 UTC de 1 saat ve 0 dakika önce yapıldı.
Rüzgar güney/güneybatıdan 5 kt
Sıcaklık 5°C
Nem 87%
Basınç 1021 hPa
Görüş mesafesi: 16.1 km
Açık gökyüzü

METAR: KUZA 160154Z AUTO 20005KT 10SM CLR 05/03 A3015 RMK AO2 SLP215 T00500028

Saat: 21:54 (02:54 UTC)


TAF: eksik

4.000'den fazla havaalanı için hava durumu gözlemleri ve tahminleri (METAR ve TAF raporları).

Kullanılabilir istasyonlar harita üzerinde sarı ve kırmızı noktalarla gösterilir.

İstasyonun adını görmek için fareyi noktanın üzerinde gezdirin.

Sonrasında hava gözlem ve tahminlerini görmek için tıklayın.

Haritayı değiştirmek için: yaklaştırmak için siyah artı işaretli yeşil düğmeye ve uzaklaştırmak için de eksi işaretli düğmeye hızla tıklayın; bitişik haritalar için yeşil okları kullanın.


METAR-TAF: